createdAt,value
2018-04-10T00:00:08.987Z,97.20
2018-04-10T00:02:37.049Z,97.30
2018-04-10T00:05:05.113Z,97.60
2018-04-10T00:07:33.163Z,97.60
2018-04-10T00:10:01.243Z,97.90
2018-04-10T00:12:29.305Z,97.90
2018-04-10T00:14:57.366Z,98.00
2018-04-10T00:17:25.453Z,98.00
2018-04-10T00:19:53.516Z,98.20
2018-04-10T00:22:21.568Z,98.30
2018-04-10T00:24:49.660Z,98.40
2018-04-10T00:27:17.723Z,98.40
2018-04-10T00:29:45.776Z,98.30
2018-04-10T00:32:13.849Z,98.30
2018-04-10T00:34:41.910Z,98.30
2018-04-10T00:37:10.003Z,98.40
2018-04-10T00:39:38.070Z,98.50
2018-04-10T00:42:06.140Z,98.80
2018-04-10T00:44:34.227Z,98.50
2018-04-10T00:47:02.285Z,98.60
2018-04-10T00:49:30.349Z,98.60
2018-04-10T00:51:58.427Z,98.80
2018-04-10T00:54:27.987Z,98.90
2018-04-10T00:56:56.062Z,98.90
2018-04-10T00:59:24.127Z,99.20
2018-04-10T01:01:52.230Z,99.30
2018-04-10T01:04:20.272Z,99.50
2018-04-10T01:06:48.342Z,99.50
2018-04-10T01:09:16.419Z,99.50
2018-04-10T01:11:44.478Z,99.60
2018-04-10T01:14:12.532Z,99.50
2018-04-10T01:16:40.613Z,99.50
2018-04-10T01:19:08.668Z,99.60
2018-04-10T01:21:36.740Z,99.60
2018-04-10T01:24:04.797Z,99.70
2018-04-10T01:26:33.627Z,99.90
2018-04-10T01:29:01.723Z,99.90
2018-04-10T01:31:29.774Z,99.90
2018-04-10T01:33:57.836Z,99.90
2018-04-10T01:36:25.930Z,99.90
2018-04-10T01:38:53.988Z,99.90
2018-04-10T01:41:22.058Z,99.90
2018-04-10T01:43:50.132Z,99.90
2018-04-10T01:46:18.196Z,99.90
2018-04-10T01:48:46.262Z,99.90
2018-04-10T01:51:14.352Z,99.90
2018-04-10T01:53:42.405Z,99.90
2018-04-10T01:56:10.472Z,99.90
2018-04-10T01:58:38.556Z,99.90
2018-04-10T02:01:06.622Z,99.90
2018-04-10T02:03:34.676Z,99.90
2018-04-10T02:06:02.764Z,99.90
2018-04-10T02:08:30.828Z,99.90
2018-04-10T02:10:58.876Z,99.90
2018-04-10T02:13:26.962Z,99.90
2018-04-10T02:15:55.016Z,99.90
2018-04-10T02:18:23.076Z,99.90
2018-04-10T02:20:51.200Z,99.90
2018-04-10T02:23:19.262Z,99.90
2018-04-10T02:25:47.333Z,99.90
2018-04-10T02:28:15.632Z,99.90
2018-04-10T02:30:43.697Z,99.90
2018-04-10T02:33:11.754Z,99.90
2018-04-10T02:35:39.826Z,99.90
2018-04-10T02:38:07.900Z,99.90
2018-04-10T02:40:35.965Z,99.90
2018-04-10T02:43:04.032Z,99.90
2018-04-10T02:45:32.109Z,99.90
2018-04-10T02:48:00.172Z,99.90
2018-04-10T02:50:28.235Z,99.90
2018-04-10T02:52:56.306Z,99.90
2018-04-10T02:55:24.366Z,99.90
2018-04-10T02:57:52.433Z,99.90
2018-04-10T03:00:20.516Z,99.90
2018-04-10T03:02:48.581Z,99.90
2018-04-10T03:05:16.639Z,99.90
2018-04-10T03:07:44.732Z,99.90
2018-04-10T03:10:12.796Z,99.90
2018-04-10T03:12:40.866Z,99.90
2018-04-10T03:15:08.942Z,99.90
2018-04-10T03:17:37.014Z,99.90
2018-04-10T03:20:05.068Z,99.90
2018-04-10T03:22:33.908Z,99.90
2018-04-10T03:25:01.968Z,99.90
2018-04-10T03:27:30.048Z,99.90
2018-04-10T03:29:58.144Z,99.90
2018-04-10T03:32:26.208Z,99.90
2018-04-10T03:34:54.268Z,99.90
2018-04-10T03:37:22.478Z,99.90
2018-04-10T03:39:50.544Z,99.90
2018-04-10T03:42:18.612Z,99.90
2018-04-10T03:44:46.692Z,99.90
2018-04-10T03:47:14.784Z,99.90
2018-04-10T03:49:42.845Z,99.90
2018-04-10T03:52:11.672Z,99.90
2018-04-10T03:54:39.757Z,99.90
2018-04-10T03:57:07.817Z,99.90
2018-04-10T03:59:35.884Z,99.90
2018-04-10T04:02:03.969Z,99.90
2018-04-10T04:04:32.028Z,99.90
2018-04-10T04:07:00.094Z,99.90
2018-04-10T04:09:28.176Z,99.90
2018-04-10T04:11:56.235Z,99.90
2018-04-10T04:14:24.299Z,99.90
2018-04-10T04:17:04.193Z,99.90
2018-04-10T04:19:44.076Z,99.90
2018-04-10T04:22:19.731Z,99.90
2018-04-10T04:24:47.801Z,99.90
2018-04-10T04:27:15.861Z,99.90
2018-04-10T04:29:43.937Z,99.90
2018-04-10T04:32:11.999Z,99.90
2018-04-10T04:34:40.056Z,99.90
2018-04-10T04:37:08.157Z,99.90
2018-04-10T04:39:36.208Z,99.90
2018-04-10T04:42:04.277Z,99.90
2018-04-10T04:44:32.347Z,99.90
2018-04-10T04:47:00.404Z,99.90
2018-04-10T04:49:28.484Z,99.90
2018-04-10T04:51:56.541Z,99.90
2018-04-10T04:54:24.608Z,99.90
2018-04-10T04:56:52.669Z,99.90
2018-04-10T04:59:20.737Z,99.90
2018-04-10T05:01:48.792Z,99.90
2018-04-10T05:04:16.884Z,99.90
2018-04-10T05:06:44.948Z,99.90
2018-04-10T05:09:13.003Z,99.90
2018-04-10T05:11:41.080Z,99.90
2018-04-10T05:14:09.144Z,99.90
2018-04-10T05:16:37.237Z,99.90
2018-04-10T05:19:05.291Z,99.90
2018-04-10T05:21:33.353Z,99.90
2018-04-10T05:24:01.423Z,99.90
2018-04-10T05:26:29.480Z,99.90
2018-04-10T05:28:57.544Z,99.90
2018-04-10T05:31:26.389Z,99.90
2018-04-10T05:33:54.458Z,99.90
2018-04-10T05:36:22.514Z,99.90
2018-04-10T05:38:50.601Z,99.90
2018-04-10T05:41:18.667Z,99.90
2018-04-10T05:43:46.729Z,99.90
2018-04-10T05:46:14.807Z,99.90
2018-04-10T05:48:42.873Z,99.90
2018-04-10T05:51:10.935Z,99.90
2018-04-10T05:53:39.034Z,99.90
2018-04-10T05:56:07.101Z,99.90
2018-04-10T05:58:35.165Z,99.90
2018-04-10T06:01:03.263Z,99.90
2018-04-10T06:03:31.331Z,99.90
2018-04-10T06:05:59.390Z,99.90
2018-04-10T06:08:28.224Z,99.90
2018-04-10T06:10:56.705Z,99.90
2018-04-10T06:13:24.772Z,99.90
2018-04-10T06:15:52.864Z,99.90
2018-04-10T06:18:20.948Z,99.90
2018-04-10T06:20:49.019Z,99.90
2018-04-10T06:23:17.091Z,99.90
2018-04-10T06:25:45.181Z,99.90
2018-04-10T06:28:13.252Z,99.90
2018-04-10T06:30:41.315Z,99.90
2018-04-10T06:33:10.178Z,99.90
2018-04-10T06:35:38.235Z,99.90
2018-04-10T06:38:07.069Z,99.90
2018-04-10T06:40:35.145Z,99.90
2018-04-10T06:43:03.210Z,99.90
2018-04-10T06:45:31.276Z,99.90
2018-04-10T06:47:59.372Z,99.90
2018-04-10T06:50:28.946Z,99.90
2018-04-10T06:52:57.058Z,99.90
2018-04-10T06:55:25.069Z,99.90
2018-04-10T06:57:53.153Z,99.90
2018-04-10T07:00:21.227Z,99.90
2018-04-10T07:02:49.305Z,99.90
2018-04-10T07:05:17.391Z,99.90
2018-04-10T07:07:46.217Z,99.90
2018-04-10T07:10:15.060Z,99.90
2018-04-10T07:12:43.155Z,99.90
2018-04-10T07:15:11.207Z,99.90
2018-04-10T07:17:39.274Z,99.90
2018-04-10T07:20:07.382Z,99.90
2018-04-10T07:22:35.448Z,99.90
2018-04-10T07:25:03.538Z,99.90
2018-04-10T07:27:31.622Z,99.90
2018-04-10T07:29:59.706Z,99.90
2018-04-10T07:32:27.772Z,99.90
2018-04-10T07:34:55.852Z,99.90
2018-04-10T07:37:24.133Z,99.90
2018-04-10T07:39:52.211Z,99.80
2018-04-10T07:42:20.288Z,99.90
2018-04-10T07:44:48.358Z,99.90
2018-04-10T07:47:16.419Z,99.50
2018-04-10T07:49:44.831Z,98.80
2018-04-10T07:52:12.894Z,98.40
2018-04-10T07:54:40.959Z,98.50
2018-04-10T07:57:09.045Z,98.60
2018-04-10T07:59:37.121Z,98.80
2018-04-10T08:02:05.175Z,97.90
2018-04-10T08:04:33.277Z,97.50
2018-04-10T08:07:01.346Z,97.50
2018-04-10T08:09:29.418Z,97.80
2018-04-10T08:11:57.522Z,97.40
2018-04-10T08:14:25.611Z,96.50
2018-04-10T08:16:53.640Z,97.00
2018-04-10T08:19:21.740Z,96.50
2018-04-10T08:21:49.810Z,97.60
2018-04-10T08:24:17.909Z,97.10
2018-04-10T08:26:46.003Z,96.00
2018-04-10T08:29:14.068Z,95.90
2018-04-10T08:31:42.136Z,95.40
2018-04-10T08:34:10.232Z,95.80
2018-04-10T08:36:38.296Z,95.70
2018-04-10T08:39:06.368Z,95.00
2018-04-10T08:41:34.440Z,94.90
2018-04-10T08:44:02.541Z,95.50
2018-04-10T08:46:30.619Z,95.00
2018-04-10T08:48:58.685Z,95.10
2018-04-10T08:51:26.776Z,94.80
2018-04-10T08:53:54.841Z,93.80
2018-04-10T08:56:22.909Z,93.80
2018-04-10T08:58:51.001Z,93.10
2018-04-10T09:01:19.061Z,93.00
2018-04-10T09:03:47.133Z,92.60
2018-04-10T09:06:15.229Z,92.10
2018-04-10T09:08:43.293Z,91.70
2018-04-10T09:11:11.351Z,90.50
2018-04-10T09:13:39.439Z,90.60
2018-04-10T09:16:07.504Z,90.70
2018-04-10T09:18:35.571Z,90.60
2018-04-10T09:21:03.649Z,90.30
2018-04-10T09:23:31.721Z,91.00
2018-04-10T09:25:59.789Z,89.50
2018-04-10T09:28:27.874Z,90.00
2018-04-10T09:30:55.938Z,90.80
2018-04-10T09:33:24.003Z,91.40
2018-04-10T09:35:52.104Z,89.90
2018-04-10T09:38:20.172Z,88.60
2018-04-10T09:40:48.233Z,86.20
2018-04-10T09:43:16.330Z,85.40
2018-04-10T09:45:44.397Z,87.10
2018-04-10T09:48:12.458Z,88.30
2018-04-10T09:50:40.546Z,87.30
2018-04-10T09:53:08.608Z,87.90
2018-04-10T09:55:36.677Z,86.00
2018-04-10T09:58:04.774Z,87.10
2018-04-10T10:00:38.352Z,86.20
2018-04-10T10:03:06.450Z,83.70
2018-04-10T10:05:34.516Z,85.60
2018-04-10T10:08:02.580Z,84.00
2018-04-10T10:10:30.670Z,84.60
2018-04-10T10:12:58.753Z,81.10
2018-04-10T10:15:26.796Z,79.50
2018-04-10T10:17:55.660Z,77.00
2018-04-10T10:20:23.730Z,77.00
2018-04-10T10:22:51.798Z,76.30
2018-04-10T10:25:19.874Z,74.30
2018-04-10T10:27:47.939Z,72.50
2018-04-10T10:30:16.040Z,74.90
2018-04-10T10:32:44.863Z,84.80
2018-04-10T10:35:12.923Z,84.80
2018-04-10T10:37:41.021Z,83.50
2018-04-10T10:40:09.081Z,84.40
2018-04-10T10:42:37.144Z,85.00
2018-04-10T10:45:05.228Z,86.30
2018-04-10T10:47:33.284Z,84.70
2018-04-10T10:50:01.355Z,89.00
2018-04-10T10:52:29.440Z,87.80
2018-04-10T10:54:57.507Z,85.80
2018-04-10T10:57:25.569Z,85.50
2018-04-10T10:59:53.686Z,87.10
2018-04-10T11:02:21.739Z,86.70
2018-04-10T11:04:49.907Z,85.30
2018-04-10T11:07:17.987Z,85.90
2018-04-10T11:09:46.049Z,85.10
2018-04-10T11:12:14.103Z,84.50
2018-04-10T11:14:42.185Z,87.40
2018-04-10T11:17:10.243Z,84.00
2018-04-10T11:19:38.307Z,85.40
2018-04-10T11:22:06.383Z,85.40
2018-04-10T11:24:34.433Z,85.00
2018-04-10T11:27:02.513Z,83.30
2018-04-10T11:29:31.359Z,87.50
2018-04-10T11:31:59.430Z,87.40
2018-04-10T11:34:27.476Z,83.70
2018-04-10T11:36:55.553Z,84.30
2018-04-10T11:39:23.618Z,87.20
2018-04-10T11:41:51.669Z,86.30
2018-04-10T11:44:19.747Z,85.10
2018-04-10T11:46:47.800Z,87.30
2018-04-10T11:49:15.861Z,88.70
2018-04-10T11:51:44.705Z,91.50
2018-04-10T11:54:12.762Z,91.50
2018-04-10T11:56:40.818Z,92.00
2018-04-10T11:59:08.904Z,92.60
2018-04-10T12:01:36.956Z,92.20
2018-04-10T12:04:05.020Z,92.40
2018-04-10T12:06:33.162Z,92.20
2018-04-10T12:09:01.174Z,93.00
2018-04-10T12:11:29.259Z,92.90
2018-04-10T12:13:57.315Z,93.20
2018-04-10T12:16:25.377Z,93.70
2018-04-10T12:18:53.431Z,93.80
2018-04-10T12:21:21.529Z,93.70
2018-04-10T12:23:49.585Z,93.60
2018-04-10T12:26:17.652Z,93.60
2018-04-10T12:28:46.473Z,93.80
2018-04-10T12:31:14.537Z,93.80
2018-04-10T12:33:42.625Z,93.50
2018-04-10T12:36:10.676Z,91.50
2018-04-10T12:38:38.735Z,91.20
2018-04-10T12:41:06.834Z,90.90
2018-04-10T12:43:34.896Z,90.80
2018-04-10T12:46:02.948Z,91.40
2018-04-10T12:48:31.046Z,92.00
2018-04-10T12:50:59.103Z,92.30
2018-04-10T12:53:27.164Z,92.80
2018-04-10T12:55:55.241Z,93.40
2018-04-10T12:58:23.309Z,93.60
2018-04-10T13:00:51.367Z,93.50
2018-04-10T13:03:19.439Z,92.90
2018-04-10T13:05:47.497Z,93.80
2018-04-10T13:08:15.547Z,93.80
2018-04-10T13:10:43.646Z,94.00
2018-04-10T13:13:11.695Z,93.30
2018-04-10T13:15:39.757Z,93.50
2018-04-10T13:18:07.821Z,94.10
2018-04-10T13:20:35.881Z,93.10
2018-04-10T13:23:03.956Z,93.60
2018-04-10T13:25:32.021Z,93.80
2018-04-10T13:28:00.082Z,93.80
2018-04-10T13:30:28.160Z,94.10
2018-04-10T13:32:56.224Z,94.10
2018-04-10T13:35:24.285Z,94.30
2018-04-10T13:37:52.375Z,94.50
2018-04-10T13:40:20.428Z,93.90
2018-04-10T13:42:48.489Z,93.70
2018-04-10T13:45:16.572Z,93.40
2018-04-10T13:47:44.633Z,92.90
2018-04-10T13:50:12.689Z,93.50
2018-04-10T13:52:40.767Z,93.30
2018-04-10T13:55:08.831Z,93.00
2018-04-10T13:57:36.883Z,93.40
2018-04-10T14:00:04.947Z,93.50
2018-04-10T14:02:33.004Z,93.10
2018-04-10T14:05:01.071Z,92.90
2018-04-10T14:07:29.148Z,93.00
2018-04-10T14:09:57.210Z,92.80
2018-04-10T14:12:25.268Z,92.50
2018-04-10T14:14:53.345Z,91.70
2018-04-10T14:17:21.411Z,89.90
2018-04-10T14:19:49.465Z,89.70
2018-04-10T14:22:17.540Z,90.30
2018-04-10T14:24:45.597Z,89.30
2018-04-10T14:27:13.661Z,89.10
2018-04-10T14:29:41.755Z,88.00
2018-04-10T14:32:09.813Z,88.40
2018-04-10T14:34:37.875Z,87.70
2018-04-10T14:37:05.955Z,88.00
2018-04-10T14:39:34.039Z,89.60
2018-04-10T14:42:02.102Z,86.80
2018-04-10T14:44:30.181Z,86.90
2018-04-10T14:46:58.237Z,87.80
2018-04-10T14:49:26.294Z,88.80
2018-04-10T14:51:54.388Z,86.60
2018-04-10T14:54:22.495Z,88.30
2018-04-10T14:56:50.544Z,89.40
2018-04-10T14:59:18.620Z,90.10
2018-04-10T15:01:46.682Z,89.50
2018-04-10T15:04:14.731Z,88.30
2018-04-10T15:06:43.596Z,86.40
2018-04-10T15:09:11.648Z,86.20
2018-04-10T15:11:39.709Z,85.90
2018-04-10T15:14:07.775Z,85.10
2018-04-10T15:16:35.837Z,85.40
2018-04-10T15:19:03.889Z,84.40
2018-04-10T15:21:31.983Z,84.50
2018-04-10T15:24:00.053Z,83.70
2018-04-10T15:26:28.111Z,83.20
2018-04-10T15:28:56.173Z,82.30
2018-04-10T15:31:24.247Z,81.00
2018-04-10T15:33:52.306Z,80.00
2018-04-10T15:36:20.366Z,78.20
2018-04-10T15:38:48.465Z,75.40
2018-04-10T15:41:17.284Z,77.10
2018-04-10T15:43:45.346Z,77.20
2018-04-10T15:46:13.424Z,75.60
2018-04-10T15:48:41.480Z,74.20
2018-04-10T15:51:09.538Z,75.00
2018-04-10T15:53:37.605Z,72.30
2018-04-10T15:56:05.676Z,68.20
2018-04-10T15:58:33.735Z,71.60
2018-04-10T16:01:01.827Z,71.30
2018-04-10T16:03:29.881Z,72.90
2018-04-10T16:05:57.956Z,73.00
2018-04-10T16:08:26.045Z,70.80
2018-04-10T16:10:54.116Z,70.60
2018-04-10T16:13:22.184Z,69.70
2018-04-10T16:15:50.250Z,69.30
2018-04-10T16:18:18.304Z,68.70
2018-04-10T16:20:46.386Z,71.80
2018-04-10T16:23:14.438Z,72.80
2018-04-10T16:25:42.495Z,71.00
2018-04-10T16:28:10.609Z,70.90
2018-04-10T16:30:38.672Z,69.30
2018-04-10T16:33:06.735Z,68.40
2018-04-10T16:35:34.828Z,68.10
2018-04-10T16:38:02.888Z,66.60
2018-04-10T16:40:30.947Z,69.00
2018-04-10T16:42:59.038Z,68.80
2018-04-10T16:45:27.091Z,69.20
2018-04-10T16:47:55.176Z,70.50
2018-04-10T16:50:23.226Z,69.30
2018-04-10T16:52:51.289Z,69.50
2018-04-10T16:55:19.376Z,70.70
2018-04-10T16:57:47.439Z,70.40
2018-04-10T17:00:15.497Z,69.90
2018-04-10T17:02:43.581Z,70.10
2018-04-10T17:05:11.634Z,67.00
2018-04-10T17:07:39.721Z,65.70
2018-04-10T17:10:07.776Z,65.20
2018-04-10T17:12:35.844Z,67.30
2018-04-10T17:15:04.032Z,67.30
2018-04-10T17:17:32.089Z,65.50
2018-04-10T17:20:00.150Z,65.20
2018-04-10T17:22:29.006Z,63.50
2018-04-10T17:24:57.071Z,63.50
2018-04-10T17:27:25.125Z,64.40
2018-04-10T17:29:53.220Z,64.60
2018-04-10T17:32:21.277Z,67.80
2018-04-10T17:34:49.330Z,69.70
2018-04-10T17:37:17.396Z,69.80
2018-04-10T17:39:45.454Z,69.30
2018-04-10T17:42:13.516Z,69.70
2018-04-10T17:44:41.572Z,69.90
2018-04-10T17:47:09.624Z,70.90
2018-04-10T17:49:37.705Z,73.10
2018-04-10T17:52:05.786Z,76.40
2018-04-10T17:54:34.604Z,79.20
2018-04-10T17:57:02.668Z,79.10
2018-04-10T17:59:30.737Z,80.00
2018-04-10T18:01:58.795Z,81.20
2018-04-10T18:04:26.857Z,82.20
2018-04-10T18:06:54.934Z,82.90
2018-04-10T18:09:22.991Z,82.30
2018-04-10T18:11:51.061Z,82.80
2018-04-10T18:14:19.140Z,82.70
2018-04-10T18:16:47.203Z,83.50
2018-04-10T18:19:15.264Z,85.30
2018-04-10T18:21:43.325Z,85.00
2018-04-10T18:24:11.381Z,85.60
2018-04-10T18:26:39.451Z,85.30
2018-04-10T18:29:07.508Z,85.40
2018-04-10T18:31:35.563Z,86.20
2018-04-10T18:34:03.641Z,85.40
2018-04-10T18:36:31.698Z,85.90
2018-04-10T18:38:59.797Z,86.00
2018-04-10T18:41:28.639Z,87.00
2018-04-10T18:43:56.682Z,87.00
2018-04-10T18:46:24.741Z,86.80
2018-04-10T18:48:52.811Z,87.20
2018-04-10T18:51:20.864Z,87.30
2018-04-10T18:53:48.929Z,86.90
2018-04-10T18:56:17.905Z,86.70
2018-04-10T18:58:45.975Z,86.90
2018-04-10T19:01:14.083Z,87.80
2018-04-10T19:03:42.139Z,87.30
2018-04-10T19:06:10.211Z,87.50
2018-04-10T19:08:38.281Z,89.30
2018-04-10T19:11:06.397Z,89.40
2018-04-10T19:13:34.445Z,90.10
2018-04-10T19:16:02.544Z,89.30
2018-04-10T19:18:30.585Z,90.50
2018-04-10T19:20:58.642Z,91.00
2018-04-10T19:23:26.733Z,91.20
2018-04-10T19:25:54.781Z,91.90
2018-04-10T19:28:22.858Z,92.50
2018-04-10T19:30:50.922Z,92.60
2018-04-10T19:33:18.970Z,92.60
2018-04-10T19:35:47.020Z,92.10
2018-04-10T19:38:15.084Z,92.20
2018-04-10T19:40:43.152Z,91.90
2018-04-10T19:43:11.211Z,92.00
2018-04-10T19:45:39.291Z,91.90
2018-04-10T19:48:07.344Z,92.00
2018-04-10T19:50:35.393Z,92.20
2018-04-10T19:53:04.211Z,91.90
2018-04-10T19:55:32.278Z,91.80
2018-04-10T19:58:00.357Z,92.10
2018-04-10T20:00:28.411Z,92.20
2018-04-10T20:10:51.073Z,93.60
2018-04-10T20:16:26.817Z,93.50
2018-04-10T20:19:21.128Z,93.80
2018-04-10T20:24:59.379Z,93.90
2018-04-10T20:30:32.961Z,93.80
2018-04-10T20:33:25.924Z,94.60
2018-04-10T20:39:04.292Z,93.90
2018-04-10T20:50:26.873Z,94.90
2018-04-10T20:52:55.066Z,95.00
2018-04-10T20:55:23.203Z,94.90
2018-04-10T20:57:52.056Z,94.60
2018-04-10T21:00:20.144Z,94.60
2018-04-10T21:02:48.256Z,94.60
2018-04-10T21:05:16.344Z,94.90
2018-04-10T21:07:44.432Z,95.00
2018-04-10T21:10:12.562Z,95.30
2018-04-10T21:12:40.639Z,95.40
2018-04-10T21:15:08.743Z,95.50
2018-04-10T21:17:36.877Z,95.60
2018-04-10T21:20:04.965Z,95.50
2018-04-10T21:22:33.075Z,95.40
2018-04-10T21:25:01.199Z,95.70
2018-04-10T21:27:29.319Z,95.90
2018-04-10T21:29:57.405Z,95.90
2018-04-10T21:32:25.511Z,95.90
2018-04-10T21:34:53.739Z,96.00
2018-04-10T21:37:21.864Z,95.90
2018-04-10T21:39:49.957Z,96.00
2018-04-10T21:42:18.046Z,96.00
2018-04-10T21:44:46.157Z,95.90
2018-04-10T21:47:15.053Z,96.00
2018-04-10T21:49:43.132Z,96.00
2018-04-10T21:52:11.220Z,96.10
2018-04-10T21:54:39.330Z,96.10
2018-04-10T21:57:07.438Z,96.10
2018-04-10T21:59:36.300Z,96.10
2018-04-10T22:02:04.408Z,96.10
2018-04-10T22:04:32.528Z,96.20
2018-04-10T22:07:00.636Z,96.50
2018-04-10T22:09:29.504Z,96.40
2018-04-10T22:11:57.595Z,96.40
2018-04-10T22:14:25.686Z,96.40
2018-04-10T22:16:53.774Z,96.70
2018-04-10T22:19:21.885Z,97.00
2018-04-10T22:21:49.972Z,97.30
2018-04-10T22:24:18.823Z,97.20
2018-04-10T22:26:46.930Z,97.30
2018-04-10T22:29:15.028Z,97.40
2018-04-10T22:31:43.141Z,97.40
2018-04-10T22:34:11.205Z,97.50
2018-04-10T22:36:39.314Z,97.60
2018-04-10T22:39:07.455Z,97.70
2018-04-10T22:41:35.536Z,97.50
2018-04-10T22:44:03.622Z,97.70
2018-04-10T22:46:31.747Z,97.90
2018-04-10T22:48:59.858Z,98.00
2018-04-10T22:51:28.738Z,98.20
2018-04-10T22:53:56.887Z,98.20
2018-04-10T22:56:24.975Z,98.40
2018-04-10T22:58:53.085Z,98.50
2018-04-10T23:01:21.174Z,98.30
2018-04-10T23:03:49.267Z,98.40
2018-04-10T23:06:17.390Z,98.50
2018-04-10T23:08:46.268Z,98.30
2018-04-10T23:11:14.361Z,98.30
2018-04-10T23:13:42.464Z,98.40
2018-04-10T23:16:10.598Z,98.30
2018-04-10T23:18:38.694Z,98.30
2018-04-10T23:21:07.552Z,98.40
2018-04-10T23:23:35.686Z,98.30
2018-04-10T23:26:03.797Z,98.60
2018-04-10T23:28:31.884Z,98.90
2018-04-10T23:31:00.000Z,98.90
2018-04-10T23:33:28.134Z,99.00
2018-04-10T23:35:56.241Z,99.20
2018-04-10T23:38:24.389Z,98.90
2018-04-10T23:40:52.496Z,98.90
2018-04-10T23:43:20.602Z,98.90
2018-04-10T23:45:48.761Z,99.10
2018-04-10T23:48:16.873Z,99.00
2018-04-10T23:50:44.962Z,99.00
2018-04-10T23:53:13.083Z,99.20
2018-04-10T23:55:41.162Z,99.00
2018-04-10T23:58:09.266Z,99.10
